Time;durP1;ratioP1;P1;durP2;ratioP2;P2;SDS_P1;SDS_P2;PMS_P1;PMS_P2;Temp;Humidity;BMP_temperature;BMP_pressure;BME280_temperature;BME280_humidity;BME280_pressure;Samples;Min_cycle;Max_cycle;Signal;HPM_P1;HPM_P2
2023/03/28 00:00:08;;;;;;;3.65;3.38;;;;;;;;;;4969673;28;20030;-63
2023/03/28 00:02:37;;;;;;;4.18;2.90;;;;;;;;;;4969920;28;20035;-63
2023/03/28 00:05:03;;;;;;;3.03;2.75;;;;;;;;;;4970159;28;20113;-62
2023/03/28 00:07:29;;;;;;;4.07;2.90;;;;;;;;;;4970253;28;20399;-62
2023/03/28 00:09:56;;;;;;;5.20;3.30;;;;;;;;;;4969775;28;20038;-62
2023/03/28 00:12:23;;;;;;;5.57;3.45;;;;;;;;;;4974916;28;20406;-63
2023/03/28 00:14:48;;;;;;;8.30;3.30;;;;;;;;;;4969927;28;20403;-63
2023/03/28 00:17:16;;;;;;;3.53;3.20;;;;;;;;;;4969948;28;20049;-62
2023/03/28 00:19:45;;;;;;;4.45;3.33;;;;;;;;;;4974650;28;20050;-63
2023/03/28 00:22:12;;;;;;;3.40;3.10;;;;;;;;;;4969874;28;20058;-63
2023/03/28 00:24:39;;;;;;;3.95;3.30;;;;;;;;;;4969527;28;20090;-62
2023/03/28 00:27:06;;;;;;;3.20;3.00;;;;;;;;;;4973732;28;20458;-63
2023/03/28 00:29:32;;;;;;;5.53;3.60;;;;;;;;;;4969652;28;20043;-62
2023/03/28 00:31:58;;;;;;;3.45;3.15;;;;;;;;;;4968156;28;20516;-63
2023/03/28 00:34:24;;;;;;;5.00;3.25;;;;;;;;;;4972394;28;20042;-63
2023/03/28 00:36:52;;;;;;;8.52;3.78;;;;;;;;;;4968797;28;20082;-63
2023/03/28 00:39:18;;;;;;;6.45;3.70;;;;;;;;;;4969366;28;20061;-62
2023/03/28 00:41:44;;;;;;;4.05;2.97;;;;;;;;;;4968493;28;20047;-62
2023/03/28 00:44:47;;;;;;;4.70;3.67;;;;;;;;;;4970730;28;20054;-62
2023/03/28 00:47:35;;;;;;;9.38;3.47;;;;;;;;;;4969254;28;20096;-61
2023/03/28 00:50:04;;;;;;;8.38;3.90;;;;;;;;;;4968282;28;20053;-63
2023/03/28 00:52:38;;;;;;;3.33;3.08;;;;;;;;;;4972307;28;21369;-62
2023/03/28 00:55:08;;;;;;;5.53;3.72;;;;;;;;;;4970396;28;20057;-62
2023/03/28 00:57:37;;;;;;;4.43;3.53;;;;;;;;;;4969613;28;20042;-62
2023/03/28 01:00:06;;;;;;;5.93;3.22;;;;;;;;;;4968076;28;20043;-63
2023/03/28 01:02:32;;;;;;;4.20;3.80;;;;;;;;;;4972553;28;20625;-62
2023/03/28 01:05:02;;;;;;;8.60;3.90;;;;;;;;;;4978445;28;20106;-63
2023/03/28 01:07:34;;;;;;;5.90;3.55;;;;;;;;;;4982476;28;20042;-62
2023/03/28 01:10:03;;;;;;;4.32;3.60;;;;;;;;;;4983828;28;20404;-61
2023/03/28 01:12:29;;;;;;;7.00;3.53;;;;;;;;;;4967790;28;20142;-62
2023/03/28 01:14:55;;;;;;;6.43;3.67;;;;;;;;;;4965751;28;20461;-62
2023/03/28 01:17:21;;;;;;;6.00;3.28;;;;;;;;;;4967651;28;20054;-62
2023/03/28 01:20:13;;;;;;;5.38;3.33;;;;;;;;;;4962369;28;20057;-63
2023/03/28 01:23:04;;;;;;;8.63;3.25;;;;;;;;;;4967513;28;20034;-61
2023/03/28 01:26:04;;;;;;;6.28;3.58;;;;;;;;;;4971821;28;20038;-62
2023/03/28 01:28:36;;;;;;;4.57;3.25;;;;;;;;;;4965565;28;20046;-62
2023/03/28 01:31:32;;;;;;;4.00;3.22;;;;;;;;;;4967730;28;20121;-63
2023/03/28 01:35:00;;;;;;;2.88;2.67;;;;;;;;;;4966668;28;20093;-62
2023/03/28 01:37:48;;;;;;;3.38;3.08;;;;;;;;;;4967823;28;20491;-62
2023/03/28 01:40:43;;;;;;;9.25;3.28;;;;;;;;;;4986381;28;20034;-61
2023/03/28 01:43:24;;;;;;;5.32;3.40;;;;;;;;;;4983440;28;20122;-62
2023/03/28 01:46:01;;;;;;;5.80;3.30;;;;;;;;;;4965399;28;20511;-60
2023/03/28 01:48:58;;;;;;;5.00;3.40;;;;;;;;;;4983537;28;20147;-62
2023/03/28 01:51:37;;;;;;;5.65;4.10;;;;;;;;;;4984021;28;20034;-61
2023/03/28 01:54:43;;;;;;;8.93;4.07;;;;;;;;;;4966584;28;20537;-63
2023/03/28 01:57:20;;;;;;;5.43;4.32;;;;;;;;;;4930490;28;20566;-63
2023/03/28 02:00:05;;;;;;;4.28;3.63;;;;;;;;;;4924977;29;20055;-63
2023/03/28 02:02:33;;;;;;;7.93;3.42;;;;;;;;;;4943390;28;20055;-63
2023/03/28 02:05:14;;;;;;;8.70;4.00;;;;;;;;;;4932523;28;20458;-63
2023/03/28 02:07:43;;;;;;;4.18;3.30;;;;;;;;;;4925644;29;20170;-61
2023/03/28 02:10:13;;;;;;;5.82;4.50;;;;;;;;;;4928857;29;20114;-63
2023/03/28 02:13:04;;;;;;;6.43;3.70;;;;;;;;;;4942433;28;20162;-62
2023/03/28 02:16:01;;;;;;;8.07;4.07;;;;;;;;;;4945425;28;20046;-62
2023/03/28 02:18:51;;;;;;;6.47;4.18;;;;;;;;;;4942489;28;20150;-63
2023/03/28 02:21:50;;;;;;;4.45;3.78;;;;;;;;;;4927708;29;20047;-61
2023/03/28 02:24:41;;;;;;;10.25;3.97;;;;;;;;;;4929315;29;20480;-60
2023/03/28 02:27:10;;;;;;;4.85;4.00;;;;;;;;;;4927868;28;20621;-62
2023/03/28 02:30:12;;;;;;;5.75;4.00;;;;;;;;;;4900211;29;20043;-63
2023/03/28 02:32:49;;;;;;;5.30;3.90;;;;;;;;;;4901198;29;20515;-63
2023/03/28 02:35:18;;;;;;;4.25;3.78;;;;;;;;;;4925006;29;20043;-63
2023/03/28 02:38:04;;;;;;;7.57;3.90;;;;;;;;;;4926436;29;20572;-62
2023/03/28 02:40:50;;;;;;;4.05;3.60;;;;;;;;;;4911766;29;20534;-62
2023/03/28 02:43:35;;;;;;;3.88;3.50;;;;;;;;;;4911690;29;20422;-62
2023/03/28 02:46:23;;;;;;;7.07;3.90;;;;;;;;;;4910669;29;20863;-62
2023/03/28 02:49:01;;;;;;;3.92;3.65;;;;;;;;;;4928300;29;20047;-62
2023/03/28 02:51:39;;;;;;;5.45;3.67;;;;;;;;;;4925501;29;20067;-62
2023/03/28 02:54:45;;;;;;;4.80;4.07;;;;;;;;;;4923653;29;20482;-62
2023/03/28 02:57:35;;;;;;;4.20;3.70;;;;;;;;;;4911173;29;20052;-62
2023/03/28 03:00:11;;;;;;;4.43;4.03;;;;;;;;;;4914551;29;20039;-62
2023/03/28 03:02:39;;;;;;;5.70;3.97;;;;;;;;;;4930478;29;20043;-62
2023/03/28 03:05:06;;;;;;;12.07;4.38;;;;;;;;;;4964745;28;20051;-62
2023/03/28 03:07:31;;;;;;;5.05;4.18;;;;;;;;;;4966632;28;20038;-62
2023/03/28 03:09:57;;;;;;;7.57;4.50;;;;;;;;;;4971307;28;20402;-62
2023/03/28 03:12:23;;;;;;;3.95;3.65;;;;;;;;;;4975259;28;20117;-62
2023/03/28 03:14:54;;;;;;;4.38;3.88;;;;;;;;;;4967937;28;20039;-61
2023/03/28 03:17:46;;;;;;;6.05;4.20;;;;;;;;;;4971486;28;20081;-62
2023/03/28 03:20:12;;;;;;;6.95;3.53;;;;;;;;;;4976018;28;20039;-62
2023/03/28 03:22:38;;;;;;;16.40;3.90;;;;;;;;;;4970417;28;20116;-62
2023/03/28 03:25:06;;;;;;;5.28;4.35;;;;;;;;;;4968571;28;20526;-62
2023/03/28 03:27:42;;;;;;;6.63;4.13;;;;;;;;;;4974271;28;20108;-62
2023/03/28 03:30:10;;;;;;;6.68;4.13;;;;;;;;;;4976924;28;20056;-62
2023/03/28 03:32:57;;;;;;;7.07;3.80;;;;;;;;;;4973668;28;20041;-62
2023/03/28 03:35:27;;;;;;;8.25;4.63;;;;;;;;;;4968727;28;20671;-62
2023/03/28 03:38:02;;;;;;;7.65;4.07;;;;;;;;;;4976156;28;20038;-61
2023/03/28 03:40:27;;;;;;;15.73;5.75;;;;;;;;;;4985554;28;20042;-62
2023/03/28 03:42:53;;;;;;;7.63;5.15;;;;;;;;;;4967741;28;20053;-61
2023/03/28 03:45:19;;;;;;;10.73;5.40;;;;;;;;;;4969339;28;20038;-62
2023/03/28 03:47:45;;;;;;;9.23;5.10;;;;;;;;;;4969759;28;20684;-62
2023/03/28 03:50:12;;;;;;;7.90;5.25;;;;;;;;;;4972137;28;20399;-62
2023/03/28 03:52:38;;;;;;;9.27;5.60;;;;;;;;;;4973176;28;20039;-62
2023/03/28 03:55:05;;;;;;;7.55;4.65;;;;;;;;;;4966759;28;20414;-62
2023/03/28 03:57:34;;;;;;;8.10;5.18;;;;;;;;;;4970976;28;20118;-62
2023/03/28 04:00:13;;;;;;;7.45;4.90;;;;;;;;;;4973453;28;20035;-62
2023/03/28 04:02:50;;;;;;;6.75;4.57;;;;;;;;;;4970078;28;20042;-62
2023/03/28 04:05:23;;;;;;;6.82;4.88;;;;;;;;;;4966980;28;20073;-62
2023/03/28 04:08:05;;;;;;;5.95;4.53;;;;;;;;;;4970814;28;20038;-62
2023/03/28 04:10:36;;;;;;;10.10;6.55;;;;;;;;;;4970228;28;20041;-62
2023/03/28 04:13:02;;;;;;;10.07;5.30;;;;;;;;;;4968218;28;20026;-62
2023/03/28 04:15:29;;;;;;;11.15;4.40;;;;;;;;;;4968902;28;20066;-61
2023/03/28 04:18:21;;;;;;;6.18;4.75;;;;;;;;;;4969461;28;20043;-62
2023/03/28 04:20:54;;;;;;;8.88;4.53;;;;;;;;;;4971763;28;20066;-63
2023/03/28 04:23:42;;;;;;;8.63;5.28;;;;;;;;;;4970945;28;20093;-62
2023/03/28 04:26:09;;;;;;;5.28;4.72;;;;;;;;;;4971770;28;20113;-62
2023/03/28 04:28:52;;;;;;;12.57;5.22;;;;;;;;;;4968707;28;20402;-63
2023/03/28 04:31:20;;;;;;;8.90;5.43;;;;;;;;;;4968067;28;20042;-62
2023/03/28 04:34:18;;;;;;;11.48;5.88;;;;;;;;;;4982127;28;20094;-62
2023/03/28 04:37:00;;;;;;;6.15;4.72;;;;;;;;;;4968213;28;20665;-62
2023/03/28 04:39:34;;;;;;;6.60;5.00;;;;;;;;;;4966780;28;20035;-61
2023/03/28 04:42:26;;;;;;;10.20;5.97;;;;;;;;;;4967195;28;20042;-63
2023/03/28 04:45:07;;;;;;;11.00;6.25;;;;;;;;;;4968190;28;20027;-63
2023/03/28 04:47:36;;;;;;;7.97;5.28;;;;;;;;;;4968068;28;20050;-63
2023/03/28 04:50:02;;;;;;;8.75;5.72;;;;;;;;;;4968808;28;20059;-63
2023/03/28 04:52:33;;;;;;;7.85;5.53;;;;;;;;;;4970203;28;20462;-63
2023/03/28 04:54:59;;;;;;;9.10;5.82;;;;;;;;;;4970397;28;20124;-63
2023/03/28 04:57:25;;;;;;;10.95;5.75;;;;;;;;;;4968112;28;20086;-63
2023/03/28 04:59:56;;;;;;;14.93;7.30;;;;;;;;;;4967501;28;20070;-64
2023/03/28 05:02:41;;;;;;;9.93;6.40;;;;;;;;;;4967758;28;20035;-64
2023/03/28 05:05:10;;;;;;;;;;;;;;;;;;4968567;28;20410;-64
2023/03/28 05:07:36;;;;;;;16.05;8.13;;;;;;;;;;4967785;28;19914;-64
2023/03/28 05:10:03;;;;;;;13.32;6.03;;;;;;;;;;4966054;28;20051;-64
2023/03/28 05:12:34;;;;;;;8.05;6.25;;;;;;;;;;4968839;28;20045;-64
2023/03/28 05:15:04;;;;;;;12.20;6.32;;;;;;;;;;4967049;28;20030;-63
2023/03/28 05:17:31;;;;;;;11.90;6.47;;;;;;;;;;4980332;28;20043;-62
2023/03/28 05:20:08;;;;;;;16.02;9.35;;;;;;;;;;4967185;28;20505;-62
2023/03/28 05:22:44;;;;;;;44.95;13.52;;;;;;;;;;4982305;28;20062;-61
2023/03/28 05:25:10;;;;;;;48.42;17.10;;;;;;;;;;4967542;28;20511;-63
2023/03/28 05:27:37;;;;;;;29.17;10.85;;;;;;;;;;4983755;28;20050;-63
2023/03/28 05:30:05;;;;;;;16.70;8.27;;;;;;;;;;4969074;28;20043;-63
2023/03/28 05:32:31;;;;;;;28.63;12.32;;;;;;;;;;4967785;28;20038;-62
2023/03/28 05:34:57;;;;;;;14.38;8.60;;;;;;;;;;4967476;28;20038;-63
2023/03/28 05:37:27;;;;;;;12.25;7.35;;;;;;;;;;4967555;28;20094;-62
2023/03/28 05:39:53;;;;;;;10.15;6.07;;;;;;;;;;4967079;28;20129;-63
2023/03/28 05:42:20;;;;;;;7.05;5.80;;;;;;;;;;4986000;28;20109;-63
2023/03/28 05:44:45;;;;;;;7.15;5.80;;;;;;;;;;4968368;28;20045;-63
2023/03/28 05:47:29;;;;;;;8.98;6.00;;;;;;;;;;4967180;28;20054;-64
2023/03/28 05:49:56;;;;;;;7.93;6.03;;;;;;;;;;4967206;28;20030;-64
2023/03/28 05:52:22;;;;;;;16.27;6.65;;;;;;;;;;4967555;28;20109;-64
2023/03/28 05:54:48;;;;;;;7.53;5.25;;;;;;;;;;4967436;28;20070;-64
2023/03/28 05:57:16;;;;;;;10.70;5.93;;;;;;;;;;4967740;28;20118;-63
2023/03/28 05:59:42;;;;;;;6.97;4.43;;;;;;;;;;4967528;28;20062;-63
2023/03/28 06:02:15;;;;;;;4.38;4.03;;;;;;;;;;4965859;28;20049;-63
2023/03/28 06:04:43;;;;;;;5.45;4.95;;;;;;;;;;4967730;28;20113;-63
2023/03/28 06:07:12;;;;;;;3.92;3.63;;;;;;;;;;4967293;28;20567;-63
2023/03/28 06:09:39;;;;;;;11.88;5.95;;;;;;;;;;4965017;28;20097;-63
2023/03/28 06:12:06;;;;;;;16.50;6.60;;;;;;;;;;4968019;28;20069;-64
2023/03/28 06:14:32;;;;;;;21.10;6.57;;;;;;;;;;4966878;28;20426;-64
2023/03/28 06:17:02;;;;;;;12.30;4.40;;;;;;;;;;4967936;28;20039;-63
2023/03/28 06:19:35;;;;;;;7.53;5.38;;;;;;;;;;4963916;28;20035;-63
2023/03/28 06:22:01;;;;;;;8.32;5.78;;;;;;;;;;4967439;28;20034;-64
2023/03/28 06:24:28;;;;;;;6.88;5.72;;;;;;;;;;4966889;28;20066;-64
2023/03/28 06:26:53;;;;;;;8.18;6.28;;;;;;;;;;4964929;28;20065;-63
2023/03/28 06:29:22;;;;;;;7.40;6.13;;;;;;;;;;4966937;28;20494;-63
2023/03/28 06:31:56;;;;;;;22.35;16.08;;;;;;;;;;4970198;28;20039;-63
2023/03/28 06:34:22;;;;;;;9.55;5.72;;;;;;;;;;4970825;28;20097;-63
2023/03/28 06:36:55;;;;;;;13.23;6.82;;;;;;;;;;4969050;28;20038;-63
2023/03/28 06:39:24;;;;;;;9.68;7.05;;;;;;;;;;4985572;28;20097;-63
2023/03/28 06:41:55;;;;;;;6.15;5.18;;;;;;;;;;4970744;28;20556;-64
2023/03/28 06:44:27;;;;;;;6.20;5.53;;;;;;;;;;4987038;28;20065;-63
2023/03/28 06:47:06;;;;;;;5.22;4.47;;;;;;;;;;4965117;28;20035;-63
2023/03/28 06:49:32;;;;;;;8.60;6.32;;;;;;;;;;4986225;28;20035;-63
2023/03/28 06:52:25;;;;;;;10.23;6.50;;;;;;;;;;4970156;28;20037;-63
2023/03/28 06:54:52;;;;;;;9.80;6.10;;;;;;;;;;4968754;28;20109;-63
2023/03/28 06:57:18;;;;;;;6.22;5.22;;;;;;;;;;4971639;28;20478;-64
2023/03/28 06:59:45;;;;;;;4.47;4.07;;;;;;;;;;4970149;28;20605;-64
2023/03/28 07:02:17;;;;;;;16.92;5.75;;;;;;;;;;4967884;28;20482;-64
2023/03/28 07:04:43;;;;;;;10.32;5.53;;;;;;;;;;4963879;28;20033;-64
2023/03/28 07:07:09;;;;;;;9.38;6.20;;;;;;;;;;4969069;28;20130;-64
2023/03/28 07:09:35;;;;;;;10.00;6.50;;;;;;;;;;4970270;28;20126;-64
2023/03/28 07:12:06;;;;;;;8.05;6.70;;;;;;;;;;4968770;28;20038;-64
2023/03/28 07:14:32;;;;;;;8.18;6.22;;;;;;;;;;4969842;28;20206;-64
2023/03/28 07:16:59;;;;;;;28.15;18.70;;;;;;;;;;4969916;28;20407;-64
2023/03/28 07:19:25;;;;;;;15.25;11.10;;;;;;;;;;4963988;28;21364;-64
2023/03/28 07:21:52;;;;;;;6.80;6.10;;;;;;;;;;4966364;28;20035;-64
2023/03/28 07:24:19;;;;;;;9.45;6.40;;;;;;;;;;4985711;28;20058;-64
2023/03/28 07:27:05;;;;;;;8.32;6.10;;;;;;;;;;4970698;28;20057;-64
2023/03/28 07:29:30;;;;;;;8.73;6.43;;;;;;;;;;4967741;28;20042;-65
2023/03/28 07:31:56;;;;;;;9.48;6.22;;;;;;;;;;4969841;28;20391;-65
2023/03/28 07:34:24;;;;;;;8.23;6.70;;;;;;;;;;4970065;28;20383;-65
2023/03/28 07:36:50;;;;;;;8.30;6.32;;;;;;;;;;4969896;28;20494;-65
2023/03/28 07:39:28;;;;;;;7.30;6.05;;;;;;;;;;4967616;28;20575;-64
2023/03/28 07:41:56;;;;;;;14.63;6.47;;;;;;;;;;4969268;28;20059;-64
2023/03/28 07:44:21;;;;;;;7.22;5.93;;;;;;;;;;4971572;28;20128;-64
2023/03/28 07:46:47;;;;;;;10.20;6.20;;;;;;;;;;4969609;28;20042;-65
2023/03/28 07:49:15;;;;;;;7.57;5.78;;;;;;;;;;4967423;28;20045;-65
2023/03/28 07:51:42;;;;;;;7.03;5.22;;;;;;;;;;4970778;28;20561;-65
2023/03/28 07:54:16;;;;;;;6.03;5.20;;;;;;;;;;4969601;28;20070;-65
2023/03/28 07:56:47;;;;;;;12.23;5.72;;;;;;;;;;4969542;28;20062;-64
2023/03/28 07:59:23;;;;;;;6.60;5.47;;;;;;;;;;4966722;28;20045;-64
2023/03/28 08:01:51;;;;;;;5.50;5.00;;;;;;;;;;4969573;28;20222;-64
2023/03/28 08:04:18;;;;;;;7.40;5.57;;;;;;;;;;4969169;28;20519;-64
2023/03/28 08:07:17;;;;;;;6.95;5.28;;;;;;;;;;4969148;28;20039;-63
2023/03/28 08:09:46;;;;;;;7.90;4.88;;;;;;;;;;4968849;28;20031;-65
2023/03/28 08:12:18;;;;;;;6.80;5.13;;;;;;;;;;4969256;28;20070;-64
2023/03/28 08:14:45;;;;;;;8.80;5.05;;;;;;;;;;4969016;28;20446;-64
2023/03/28 08:17:11;;;;;;;7.10;5.28;;;;;;;;;;4967498;28;20035;-64
2023/03/28 08:19:36;;;;;;;5.72;4.78;;;;;;;;;;4968510;28;20038;-64
2023/03/28 08:22:11;;;;;;;8.50;5.78;;;;;;;;;;4969113;28;20554;-64
2023/03/28 08:24:45;;;;;;;8.98;5.60;;;;;;;;;;4967868;28;20051;-64
2023/03/28 08:27:17;;;;;;;9.02;5.30;;;;;;;;;;4969122;28;20047;-64
2023/03/28 08:29:45;;;;;;;7.60;5.45;;;;;;;;;;4968547;28;20406;-64
2023/03/28 08:32:11;;;;;;;5.97;4.80;;;;;;;;;;4969078;28;20030;-64
2023/03/28 08:34:37;;;;;;;9.32;6.15;;;;;;;;;;4968559;28;20395;-63
2023/03/28 08:37:12;;;;;;;5.97;5.38;;;;;;;;;;4967948;28;20092;-64
2023/03/28 08:39:41;;;;;;;8.85;5.65;;;;;;;;;;4968368;28;20402;-64
2023/03/28 08:42:26;;;;;;;7.43;5.28;;;;;;;;;;4983878;28;20099;-64
2023/03/28 08:45:03;;;;;;;8.27;6.05;;;;;;;;;;4985279;28;20037;-64
2023/03/28 08:47:31;;;;;;;5.80;5.00;;;;;;;;;;4985286;28;20307;-64
2023/03/28 08:50:27;;;;;;;7.25;4.78;;;;;;;;;;4966951;28;20127;-64
2023/03/28 08:52:54;;;;;;;10.40;5.53;;;;;;;;;;4967450;28;20045;-64
2023/03/28 08:55:40;;;;;;;7.47;5.78;;;;;;;;;;4968500;28;20053;-64
2023/03/28 08:58:13;;;;;;;10.50;5.80;;;;;;;;;;4982632;28;20034;-64
2023/03/28 09:00:39;;;;;;;10.43;5.97;;;;;;;;;;4967670;28;20077;-64
2023/03/28 09:03:13;;;;;;;10.00;5.38;;;;;;;;;;4969365;28;20035;-64
2023/03/28 09:06:06;;;;;;;10.43;5.40;;;;;;;;;;4968213;28;20031;-64
2023/03/28 09:08:47;;;;;;;9.20;5.35;;;;;;;;;;4966427;28;20494;-64
2023/03/28 09:11:42;;;;;;;5.47;4.90;;;;;;;;;;4981874;28;20035;-64
2023/03/28 09:14:40;;;;;;;7.20;4.97;;;;;;;;;;4967714;28;20050;-64
2023/03/28 09:17:47;;;;;;;9.48;4.75;;;;;;;;;;4983034;28;20031;-64
2023/03/28 09:20:56;;;;;;;7.32;5.35;;;;;;;;;;4933899;29;20069;-64
2023/03/28 09:23:41;;;;;;;12.75;6.00;;;;;;;;;;4917752;29;20047;-64
2023/03/28 09:26:44;;;;;;;7.78;5.00;;;;;;;;;;4945116;29;20042;-64
2023/03/28 09:29:23;;;;;;;9.90;5.03;;;;;;;;;;4930514;29;20043;-63
2023/03/28 09:31:56;;;;;;;6.35;4.78;;;;;;;;;;4946974;29;20055;-63
2023/03/28 09:34:33;;;;;;;8.27;5.40;;;;;;;;;;4930038;29;20206;-64
2023/03/28 09:37:16;;;;;;;6.43;5.60;;;;;;;;;;4937037;29;20055;-63
2023/03/28 09:39:53;;;;;;;9.07;4.97;;;;;;;;;;4915563;29;20039;-64
2023/03/28 09:42:35;;;;;;;6.90;5.25;;;;;;;;;;4926697;29;20405;-64
2023/03/28 09:45:51;;;;;;;7.38;6.28;;;;;;;;;;4942576;29;20038;-63
2023/03/28 09:48:36;;;;;;;6.53;5.80;;;;;;;;;;4945784;29;20035;-63
2023/03/28 09:51:14;;;;;;;5.22;4.82;;;;;;;;;;4925391;29;20137;-62
2023/03/28 09:53:41;;;;;;;6.07;5.45;;;;;;;;;;4942777;29;20315;-63
2023/03/28 09:56:16;;;;;;;6.78;4.80;;;;;;;;;;4940441;28;20101;-64
2023/03/28 09:58:54;;;;;;;16.50;5.25;;;;;;;;;;4985438;28;20486;-64
2023/03/28 10:01:34;;;;;;;7.40;4.88;;;;;;;;;;4967364;28;20454;-64
2023/03/28 10:04:39;;;;;;;4.78;4.28;;;;;;;;;;4968587;28;20545;-63
2023/03/28 10:07:29;;;;;;;6.38;5.50;;;;;;;;;;4971474;28;20578;-64
2023/03/28 10:10:15;;;;;;;5.43;4.93;;;;;;;;;;4970654;28;20454;-64
2023/03/28 10:12:42;;;;;;;6.97;5.10;;;;;;;;;;4971166;28;20501;-64
2023/03/28 10:15:43;;;;;;;5.32;4.70;;;;;;;;;;4969748;28;20037;-64
2023/03/28 10:18:17;;;;;;;4.63;4.20;;;;;;;;;;4970695;28;20607;-64
2023/03/28 10:20:44;;;;;;;6.13;4.00;;;;;;;;;;4971265;28;20043;-64
2023/03/28 10:23:12;;;;;;;7.82;4.47;;;;;;;;;;4969805;28;20409;-64
2023/03/28 10:25:41;;;;;;;8.07;4.20;;;;;;;;;;4970800;28;20046;-64
2023/03/28 10:28:14;;;;;;;6.13;5.15;;;;;;;;;;4970691;28;20361;-64
2023/03/28 10:30:41;;;;;;;5.05;4.65;;;;;;;;;;4987010;28;20561;-64
2023/03/28 10:33:12;;;;;;;8.52;3.90;;;;;;;;;;4969622;28;20035;-64
2023/03/28 10:36:03;;;;;;;4.80;4.20;;;;;;;;;;4970718;28;20031;-64
2023/03/28 10:38:34;;;;;;;5.97;4.30;;;;;;;;;;4970443;28;20550;-64
2023/03/28 10:41:26;;;;;;;6.07;4.75;;;;;;;;;;4986180;28;20043;-64
2023/03/28 10:44:17;;;;;;;6.70;4.25;;;;;;;;;;4964310;28;20117;-64
2023/03/28 10:46:51;;;;;;;4.47;4.10;;;;;;;;;;4968976;28;20042;-64
2023/03/28 10:49:25;;;;;;;6.90;4.20;;;;;;;;;;4970568;28;20035;-64
2023/03/28 10:52:15;;;;;;;4.88;4.32;;;;;;;;;;4969795;28;20035;-64
2023/03/28 10:54:57;;;;;;;5.63;4.72;;;;;;;;;;4964792;28;20031;-64
2023/03/28 10:57:59;;;;;;;7.40;4.43;;;;;;;;;;4985729;28;20031;-64
2023/03/28 11:00:52;;;;;;;7.55;4.25;;;;;;;;;;4963809;28;20038;-64
2023/03/28 11:03:33;;;;;;;11.45;4.53;;;;;;;;;;4963788;28;20066;-64
2023/03/28 11:06:31;;;;;;;12.48;4.70;;;;;;;;;;4983425;28;20304;-64
2023/03/28 11:09:26;;;;;;;4.68;4.20;;;;;;;;;;4965412;28;20035;-62
2023/03/28 11:12:50;;;;;;;5.75;4.35;;;;;;;;;;4965776;28;20410;-64
2023/03/28 11:15:38;;;;;;;4.28;3.97;;;;;;;;;;4967548;28;20035;-64
2023/03/28 11:18:56;;;;;;;5.68;4.40;;;;;;;;;;4966606;28;20069;-64
2023/03/28 11:21:55;;;;;;;4.82;4.40;;;;;;;;;;4967467;28;20093;-64
2023/03/28 11:24:36;;;;;;;4.90;4.18;;;;;;;;;;4967491;28;20089;-64
2023/03/28 11:27:44;;;;;;;4.70;4.25;;;;;;;;;;4967014;28;20133;-64
2023/03/28 11:30:32;;;;;;;6.32;4.80;;;;;;;;;;4983682;28;20546;-64
2023/03/28 11:33:42;;;;;;;8.32;4.93;;;;;;;;;;4968099;28;20231;-64
2023/03/28 11:36:28;;;;;;;4.47;4.18;;;;;;;;;;4966272;28;20039;-64
2023/03/28 11:39:30;;;;;;;5.32;4.70;;;;;;;;;;4966949;28;20034;-64
2023/03/28 11:41:59;;;;;;;5.10;4.53;;;;;;;;;;4967626;28;20034;-64
2023/03/28 11:44:43;;;;;;;5.47;4.45;;;;;;;;;;4967051;28;20034;-65
2023/03/28 11:47:17;;;;;;;4.70;4.30;;;;;;;;;;4965903;28;20041;-64
2023/03/28 11:49:53;;;;;;;5.32;4.18;;;;;;;;;;4966715;28;20034;-65
2023/03/28 11:52:46;;;;;;;6.15;4.38;;;;;;;;;;4967899;28;20483;-65
2023/03/28 11:55:26;;;;;;;5.22;4.72;;;;;;;;;;4965516;28;20533;-64
2023/03/28 11:58:00;;;;;;;6.70;4.70;;;;;;;;;;4967078;28;20043;-65
2023/03/28 12:00:40;;;;;;;4.80;4.40;;;;;;;;;;4982866;28;20039;-64
2023/03/28 12:03:32;;;;;;;9.10;4.80;;;;;;;;;;4965245;28;20535;-64
2023/03/28 12:06:08;;;;;;;4.85;4.45;;;;;;;;;;4963492;28;20085;-64
2023/03/28 12:08:42;;;;;;;5.97;4.50;;;;;;;;;;4982788;28;20043;-64
2023/03/28 12:11:18;;;;;;;5.15;4.75;;;;;;;;;;4983150;28;20030;-64
2023/03/28 12:14:10;;;;;;;6.07;5.00;;;;;;;;;;4982659;28;20203;-64
2023/03/28 12:16:41;;;;;;;6.40;5.00;;;;;;;;;;4966667;28;20035;-64
2023/03/28 12:19:12;;;;;;;4.70;4.40;;;;;;;;;;4966607;28;20062;-65
2023/03/28 12:21:53;;;;;;;;;;;;;;;;;;4965470;28;20089;-64
2023/03/28 12:24:35;;;;;;;5.80;5.18;;;;;;;;;;4982914;28;19924;-64
2023/03/28 12:27:24;;;;;;;5.40;4.90;;;;;;;;;;4967816;28;20042;-64
2023/03/28 12:30:06;;;;;;;7.07;5.10;;;;;;;;;;4982415;28;20050;-64
2023/03/28 12:32:41;;;;;;;5.00;4.60;;;;;;;;;;4966276;28;20102;-64
2023/03/28 12:35:21;;;;;;;7.40;4.72;;;;;;;;;;4967683;28;20066;-64
2023/03/28 12:38:04;;;;;;;6.32;4.72;;;;;;;;;;4966231;28;20047;-64
2023/03/28 12:40:58;;;;;;;5.38;4.97;;;;;;;;;;4964281;28;20513;-64
2023/03/28 12:43:35;;;;;;;5.22;4.72;;;;;;;;;;4966004;28;20407;-64
2023/03/28 12:46:04;;;;;;;7.80;4.38;;;;;;;;;;4965861;28;20097;-64
2023/03/28 12:48:43;;;;;;;5.20;4.68;;;;;;;;;;4963445;28;20434;-64
2023/03/28 12:51:21;;;;;;;4.85;4.45;;;;;;;;;;4965935;28;20066;-64
2023/03/28 12:54:07;;;;;;;5.35;4.80;;;;;;;;;;4964873;28;20090;-64
2023/03/28 12:56:33;;;;;;;5.07;4.53;;;;;;;;;;4964766;28;20521;-64
2023/03/28 12:59:40;;;;;;;5.47;5.07;;;;;;;;;;4963149;28;20039;-64
2023/03/28 13:02:39;;;;;;;4.97;4.47;;;;;;;;;;4965522;28;20438;-64
2023/03/28 13:05:30;;;;;;;5.30;4.85;;;;;;;;;;4967031;28;20046;-64
2023/03/28 13:08:15;;;;;;;6.70;5.13;;;;;;;;;;4962451;28;20112;-64
2023/03/28 13:10:46;;;;;;;6.28;4.90;;;;;;;;;;4965387;28;20030;-64
2023/03/28 13:13:35;;;;;;;5.60;5.10;;;;;;;;;;4966249;28;20058;-64
2023/03/28 13:16:03;;;;;;;4.88;4.57;;;;;;;;;;4966602;28;20038;-64
2023/03/28 13:18:32;;;;;;;4.90;4.50;;;;;;;;;;4965639;28;20074;-64
2023/03/28 13:21:03;;;;;;;6.13;5.60;;;;;;;;;;4966681;28;20538;-64
2023/03/28 13:23:49;;;;;;;4.93;4.53;;;;;;;;;;4967016;28;20043;-64
2023/03/28 13:26:14;;;;;;;5.10;4.60;;;;;;;;;;4961698;28;20054;-64
2023/03/28 13:28:47;;;;;;;5.57;4.82;;;;;;;;;;4966280;28;20498;-64
2023/03/28 13:31:22;;;;;;;5.15;4.70;;;;;;;;;;4966921;28;20549;-64
2023/03/28 13:33:52;;;;;;;5.10;4.70;;;;;;;;;;4966670;28;20034;-64
2023/03/28 13:36:22;;;;;;;5.22;4.65;;;;;;;;;;4966058;28;20045;-64
2023/03/28 13:39:06;;;;;;;4.95;4.43;;;;;;;;;;4966114;28;20376;-64
2023/03/28 13:41:40;;;;;;;7.18;5.15;;;;;;;;;;4966352;28;20074;-64
2023/03/28 13:44:12;;;;;;;4.85;4.35;;;;;;;;;;4964929;28;20086;-64
2023/03/28 13:46:43;;;;;;;6.25;5.28;;;;;;;;;;4966656;28;20042;-64
2023/03/28 13:49:09;;;;;;;4.85;4.35;;;;;;;;;;4966562;28;20035;-64
2023/03/28 13:51:46;;;;;;;5.40;4.80;;;;;;;;;;4965430;28;20096;-64
2023/03/28 13:54:12;;;;;;;8.88;5.40;;;;;;;;;;4965504;28;20034;-64
2023/03/28 13:56:43;;;;;;;8.20;4.85;;;;;;;;;;4966867;28;20093;-64
2023/03/28 13:59:16;;;;;;;7.90;4.75;;;;;;;;;;4966357;28;20054;-64
2023/03/28 14:01:48;;;;;;;5.30;4.80;;;;;;;;;;4966837;28;20113;-64
2023/03/28 14:04:29;;;;;;;5.20;4.70;;;;;;;;;;4966745;28;20497;-64
2023/03/28 14:06:55;;;;;;;7.68;5.15;;;;;;;;;;4966601;28;20750;-64
2023/03/28 14:09:27;;;;;;;5.40;4.90;;;;;;;;;;4964648;28;20097;-64
2023/03/28 14:12:13;;;;;;;6.68;5.00;;;;;;;;;;4966394;28;20042;-64
2023/03/28 14:14:45;;;;;;;5.95;4.82;;;;;;;;;;4966422;28;20058;-64
2023/03/28 14:17:16;;;;;;;5.50;5.00;;;;;;;;;;4965410;28;20042;-64
2023/03/28 14:19:46;;;;;;;5.28;4.80;;;;;;;;;;4966342;28;20031;-64
2023/03/28 14:22:17;;;;;;;5.65;4.60;;;;;;;;;;4965499;28;20089;-64
2023/03/28 14:24:48;;;;;;;5.28;4.80;;;;;;;;;;4959122;28;20023;-64
2023/03/28 14:27:35;;;;;;;5.03;4.53;;;;;;;;;;4965465;28;20062;-64
2023/03/28 14:30:03;;;;;;;5.35;4.85;;;;;;;;;;4961617;28;20046;-64
2023/03/28 14:32:31;;;;;;;5.13;4.68;;;;;;;;;;4966520;28;20043;-63
2023/03/28 14:35:18;;;;;;;8.25;5.55;;;;;;;;;;4967708;28;20043;-63
2023/03/28 14:37:50;;;;;;;5.68;5.15;;;;;;;;;;4967890;28;20041;-64
2023/03/28 14:40:21;;;;;;;5.50;5.00;;;;;;;;;;4966106;28;20380;-63
2023/03/28 14:42:49;;;;;;;12.80;8.55;;;;;;;;;;4966422;28;20043;-63
2023/03/28 14:45:15;;;;;;;9.38;6.65;;;;;;;;;;4966639;28;20062;-63
2023/03/28 14:47:41;;;;;;;10.10;6.18;;;;;;;;;;4967907;28;20058;-63
2023/03/28 14:50:14;;;;;;;7.95;5.18;;;;;;;;;;4965643;28;20027;-64
2023/03/28 14:52:42;;;;;;;28.15;14.70;;;;;;;;;;4966015;28;20125;-64
2023/03/28 14:55:15;;;;;;;30.55;16.77;;;;;;;;;;4966945;28;20430;-64
2023/03/28 14:57:41;;;;;;;5.70;5.18;;;;;;;;;;4968112;28;20043;-64
2023/03/28 15:00:14;;;;;;;5.53;4.93;;;;;;;;;;4967628;28;20043;-64
2023/03/28 15:02:41;;;;;;;5.10;4.70;;;;;;;;;;4969208;28;20041;-63
2023/03/28 15:05:16;;;;;;;5.20;4.90;;;;;;;;;;4968924;28;20061;-64
2023/03/28 15:07:42;;;;;;;6.75;4.95;;;;;;;;;;4967093;28;20055;-64
2023/03/28 15:10:11;;;;;;;12.82;6.90;;;;;;;;;;4963867;28;20033;-64
2023/03/28 15:12:47;;;;;;;40.70;15.63;;;;;;;;;;4968431;28;20030;-63
2023/03/28 15:15:20;;;;;;;12.43;9.63;;;;;;;;;;4982524;28;20034;-63
2023/03/28 15:17:47;;;;;;;6.57;5.05;;;;;;;;;;4968900;28;20035;-63
2023/03/28 15:20:17;;;;;;;6.68;5.20;;;;;;;;;;4968101;28;20035;-64
2023/03/28 15:22:47;;;;;;;5.03;4.53;;;;;;;;;;4967457;28;20398;-63
2023/03/28 15:25:13;;;;;;;6.63;4.55;;;;;;;;;;4968448;28;20113;-63
2023/03/28 15:27:39;;;;;;;5.00;4.60;;;;;;;;;;4966449;28;20127;-63
2023/03/28 15:30:12;;;;;;;5.18;4.68;;;;;;;;;;4969034;28;20430;-63
2023/03/28 15:32:38;;;;;;;6.57;4.72;;;;;;;;;;4966760;28;20421;-63